Time;durP1;ratioP1;P1;durP2;ratioP2;P2;SDS_P1;SDS_P2;PMS_P1;PMS_P2;Temp;Humidity;BMP_temperature;BMP_pressure;BME280_temperature;BME280_humidity;BME280_pressure;Samples;Min_cycle;Max_cycle;Signal;HPM_P1;HPM_P2
2022/02/03 00:02:23;;;;;;;1.60;1.50;;;;;;;;;;5097662;28;20240;-71
2022/02/03 00:04:58;;;;;;;2.43;1.60;;;;;;;;;;5103832;28;20227;-71
2022/02/03 00:07:34;;;;;;;2.63;1.70;;;;;;;;;;5117764;28;20747;-71
2022/02/03 00:26:44;;;;;;;1.67;1.47;;;;;;;;;;5100481;28;20225;-71
2022/02/03 00:29:27;;;;;;;1.77;1.63;;;;;;;;;;5117317;28;20212;-71
2022/02/03 00:32:06;;;;;;;1.70;1.50;;;;;;;;;;5121154;28;20585;-71
2022/02/03 00:34:45;;;;;;;4.23;1.40;;;;;;;;;;5121213;27;20205;-71
2022/02/03 00:37:27;;;;;;;2.33;1.50;;;;;;;;;;5119882;28;20703;-71
2022/02/03 00:48:23;;;;;;;1.90;1.80;;;;;;;;;;5100695;28;20201;-71
2022/02/03 00:50:53;;;;;;;4.77;1.80;;;;;;;;;;5100146;28;20300;-71
2022/02/03 00:53:23;;;;;;;2.00;1.40;;;;;;;;;;5100157;28;20548;-71
2022/02/03 00:55:54;;;;;;;1.37;1.33;;;;;;;;;;5107714;28;20189;-71
2022/02/03 00:58:24;;;;;;;2.13;1.77;;;;;;;;;;5118088;28;20215;-71
2022/02/03 01:00:54;;;;;;;1.97;1.57;;;;;;;;;;5120616;28;20208;-70
2022/02/03 01:03:26;;;;;;;2.17;1.57;;;;;;;;;;5109723;28;20206;-71
2022/02/03 01:05:57;;;;;;;5.00;1.50;;;;;;;;;;5100111;28;20228;-71
2022/02/03 01:08:26;;;;;;;1.47;1.37;;;;;;;;;;5100415;28;20205;-71
2022/02/03 01:11:04;;;;;;;1.50;1.40;;;;;;;;;;5100075;28;20211;-71
2022/02/03 01:13:40;;;;;;;1.60;1.50;;;;;;;;;;5111684;28;20212;-71
2022/02/03 01:16:17;;;;;;;1.60;1.50;;;;;;;;;;5120458;28;20317;-71
2022/02/03 01:19:13;;;;;;;1.63;1.53;;;;;;;;;;5106236;28;20649;-71
2022/02/03 01:43:56;;;;;;;1.80;1.70;;;;;;;;;;5099208;28;20206;-71
2022/02/03 01:46:44;;;;;;;2.03;1.83;;;;;;;;;;5099347;28;20229;-71
2022/02/03 01:49:15;;;;;;;1.80;1.70;;;;;;;;;;5099144;28;20201;-71
2022/02/03 01:51:54;;;;;;;2.30;1.60;;;;;;;;;;5099463;28;20201;-71
2022/02/03 01:54:29;;;;;;;2.60;2.13;;;;;;;;;;5098913;28;20201;-71
2022/02/03 01:57:01;;;;;;;2.10;1.70;;;;;;;;;;5115869;28;20303;-71
2022/02/03 01:59:32;;;;;;;2.30;2.10;;;;;;;;;;5099089;28;20210;-71
2022/02/03 02:02:02;;;;;;;1.73;1.63;;;;;;;;;;5099200;28;20213;-71
2022/02/03 02:04:40;;;;;;;2.07;1.97;;;;;;;;;;5101612;28;20201;-71
2022/02/03 02:07:18;;;;;;;1.90;1.80;;;;;;;;;;5119394;28;20231;-71
2022/02/03 02:10:01;;;;;;;3.57;1.97;;;;;;;;;;5112962;28;20205;-71
2022/02/03 02:12:40;;;;;;;2.63;2.10;;;;;;;;;;5098431;28;20600;-71
2022/02/03 02:15:31;;;;;;;2.93;2.20;;;;;;;;;;5107125;28;20575;-71
2022/02/03 02:18:18;;;;;;;2.57;2.10;;;;;;;;;;5119104;28;20214;-71
2022/02/03 02:37:54;;;;;;;2.10;1.93;;;;;;;;;;5098251;28;20237;-71
2022/02/03 02:40:50;;;;;;;2.37;2.20;;;;;;;;;;5098088;28;20197;-71
2022/02/03 02:43:25;;;;;;;2.23;2.03;;;;;;;;;;5097398;28;20232;-71
2022/02/03 02:45:56;;;;;;;4.13;2.30;;;;;;;;;;5097930;28;20228;-71
2022/02/03 02:48:37;;;;;;;3.07;2.30;;;;;;;;;;5098238;28;20209;-71
2022/02/03 02:51:10;;;;;;;2.20;2.00;;;;;;;;;;5098504;28;20197;-72
2022/02/03 02:54:04;;;;;;;3.73;2.60;;;;;;;;;;5098311;28;20213;-71
2022/02/03 02:56:46;;;;;;;3.07;2.47;;;;;;;;;;5109741;28;20217;-71
2022/02/03 02:59:34;;;;;;;3.07;2.50;;;;;;;;;;5098341;28;20207;-71
2022/02/03 03:30:05;;;;;;;3.90;2.20;;;;;;;;;;5097893;28;20209;-71
2022/02/03 03:32:52;;;;;;;2.50;2.30;;;;;;;;;;5097939;28;20205;-71
2022/02/03 03:35:34;;;;;;;2.40;2.20;;;;;;;;;;5097765;28;20212;-71
2022/02/03 03:38:03;;;;;;;3.53;2.20;;;;;;;;;;5098464;28;20248;-71
2022/02/03 03:40:33;;;;;;;2.07;1.97;;;;;;;;;;5097952;28;20193;-71
2022/02/03 03:43:03;;;;;;;2.17;1.97;;;;;;;;;;5097571;28;20209;-71
2022/02/03 03:45:31;;;;;;;2.10;2.00;;;;;;;;;;5102996;28;20567;-71
2022/02/03 03:48:07;;;;;;;2.20;2.00;;;;;;;;;;5109499;28;20281;-71
2022/02/03 03:50:37;;;;;;;2.43;2.10;;;;;;;;;;5097921;28;20220;-71
2022/02/03 03:53:11;;;;;;;1.97;1.87;;;;;;;;;;5097882;28;20202;-71
2022/02/03 03:55:48;;;;;;;2.27;1.87;;;;;;;;;;5104127;28;20205;-71
2022/02/03 03:59:00;;;;;;;2.40;2.03;;;;;;;;;;5109737;28;20210;-71
2022/02/03 04:41:57;;;;;;;1.93;1.77;;;;;;;;;;5125353;27;20203;-72
2022/02/03 04:45:02;;;;;;;2.30;2.10;;;;;;;;;;5136309;27;20196;-72
2022/02/03 04:54:23;;;;;;;2.20;2.00;;;;;;;;;;5060254;28;20217;-72
2022/02/03 04:57:22;;;;;;;1.90;1.70;;;;;;;;;;5132751;28;20220;-72
2022/02/03 05:00:30;;;;;;;2.17;1.90;;;;;;;;;;5126126;28;20212;-72
2022/02/03 05:03:25;;;;;;;1.90;1.80;;;;;;;;;;5135330;27;20200;-72
2022/02/03 05:06:03;;;;;;;2.20;2.00;;;;;;;;;;5135770;27;20232;-72
2022/02/03 05:08:47;;;;;;;1.83;1.73;;;;;;;;;;5135925;27;20200;-71
2022/02/03 05:11:32;;;;;;;3.00;2.23;;;;;;;;;;5135631;27;20208;-72
2022/02/03 05:17:24;;;;;;;2.87;2.37;;;;;;;;;;5104023;27;20232;-72
2022/02/03 05:26:13;;;;;;;3.80;2.50;;;;;;;;;;5156858;27;20602;-71
2022/02/03 05:32:14;;;;;;;3.13;2.47;;;;;;;;;;5157076;27;20209;-71
2022/02/03 05:49:16;;;;;;;3.40;2.97;;;;;;;;;;5134997;27;20220;-71
2022/02/03 05:52:04;;;;;;;3.20;2.83;;;;;;;;;;5136055;27;20208;-71
2022/02/03 05:55:03;;;;;;;3.77;3.37;;;;;;;;;;5138012;27;20189;-71
2022/02/03 06:06:22;;;;;;;3.17;2.93;;;;;;;;;;5095697;28;20248;-71
2022/02/03 06:08:56;;;;;;;3.90;3.00;;;;;;;;;;5110503;28;20216;-71
2022/02/03 06:14:15;;;;;;;4.17;3.60;;;;;;;;;;5151598;27;20206;-71
2022/02/03 06:17:00;;;;;;;4.87;3.10;;;;;;;;;;5155881;27;20231;-71
2022/02/03 06:22:25;;;;;;;3.57;3.10;;;;;;;;;;5136915;27;20204;-71
2022/02/03 06:27:54;;;;;;;3.60;3.30;;;;;;;;;;5154897;27;20811;-70
2022/02/03 06:30:22;;;;;;;3.80;3.13;;;;;;;;;;5155728;27;20204;-71
2022/02/03 06:32:52;;;;;;;5.23;3.77;;;;;;;;;;5155057;27;20219;-70
2022/02/03 06:35:19;;;;;;;4.07;3.60;;;;;;;;;;5140729;27;20201;-71
2022/02/03 06:37:49;;;;;;;4.43;3.67;;;;;;;;;;5120933;27;20228;-71
2022/02/03 06:40:17;;;;;;;8.57;3.67;;;;;;;;;;5133386;27;20208;-71
2022/02/03 06:42:46;;;;;;;4.73;3.33;;;;;;;;;;5140680;27;20199;-71
2022/02/03 06:45:17;;;;;;;4.90;4.00;;;;;;;;;;5141498;27;20247;-71
2022/02/03 06:47:54;;;;;;;4.97;3.87;;;;;;;;;;5137041;27;20235;-71
2022/02/03 06:50:28;;;;;;;5.93;3.80;;;;;;;;;;5121194;28;20208;-71
2022/02/03 06:53:01;;;;;;;5.10;4.17;;;;;;;;;;5120869;28;20648;-71
2022/02/03 06:55:41;;;;;;;5.63;3.83;;;;;;;;;;5120667;28;20201;-71
2022/02/03 06:58:14;;;;;;;4.57;3.90;;;;;;;;;;5120562;27;20562;-70
2022/02/03 07:00:51;;;;;;;5.40;3.70;;;;;;;;;;5120760;28;20204;-71
2022/02/03 07:03:22;;;;;;;4.87;3.80;;;;;;;;;;5130290;27;20631;-71
2022/02/03 07:05:51;;;;;;;4.50;3.93;;;;;;;;;;5141365;27;20235;-70
2022/02/03 07:08:21;;;;;;;8.10;5.17;;;;;;;;;;5132080;27;20283;-71
2022/02/03 07:10:51;;;;;;;6.70;4.50;;;;;;;;;;5120469;27;20205;-70
2022/02/03 07:13:19;;;;;;;4.97;4.20;;;;;;;;;;5120315;28;20214;-71
2022/02/03 07:15:47;;;;;;;6.57;4.83;;;;;;;;;;5120515;27;20201;-71
2022/02/03 07:18:15;;;;;;;5.53;4.60;;;;;;;;;;5118464;27;20205;-70
2022/02/03 07:20:43;;;;;;;5.50;4.70;;;;;;;;;;5115521;28;20204;-71
2022/02/03 07:23:15;;;;;;;8.83;4.67;;;;;;;;;;5120615;28;20239;-71
2022/02/03 07:25:43;;;;;;;8.57;4.50;;;;;;;;;;5119907;28;20262;-71
2022/02/03 07:28:12;;;;;;;7.87;5.63;;;;;;;;;;5126887;27;20196;-70
2022/02/03 07:30:40;;;;;;;6.47;4.83;;;;;;;;;;5140918;27;20727;-71
2022/02/03 07:33:09;;;;;;;5.33;4.67;;;;;;;;;;5136985;27;20200;-71
2022/02/03 07:35:37;;;;;;;5.37;4.23;;;;;;;;;;5141372;27;20227;-71
2022/02/03 07:38:08;;;;;;;7.43;5.80;;;;;;;;;;5138506;27;20196;-72
2022/02/03 07:40:37;;;;;;;6.33;5.03;;;;;;;;;;5120040;28;20205;-71
2022/02/03 07:43:09;;;;;;;5.60;4.77;;;;;;;;;;5123974;27;20197;-71
2022/02/03 07:45:37;;;;;;;6.23;5.20;;;;;;;;;;5140288;27;20583;-71
2022/02/03 07:48:06;;;;;;;9.13;6.63;;;;;;;;;;5135763;27;20674;-71
2022/02/03 07:50:34;;;;;;;8.47;5.57;;;;;;;;;;5119955;28;20205;-71
2022/02/03 07:53:02;;;;;;;8.17;5.70;;;;;;;;;;5122832;27;20201;-71
2022/02/03 07:55:29;;;;;;;5.40;4.90;;;;;;;;;;5134304;27;20196;-70
2022/02/03 07:58:00;;;;;;;7.17;5.30;;;;;;;;;;5121252;27;20208;-70
2022/02/03 08:00:28;;;;;;;8.33;5.83;;;;;;;;;;5140107;27;20230;-71
2022/02/03 08:03:12;;;;;;;6.47;4.73;;;;;;;;;;5135354;27;20197;-71
2022/02/03 08:05:43;;;;;;;9.83;4.30;;;;;;;;;;5119153;28;20602;-70
2022/02/03 08:08:18;;;;;;;5.43;4.33;;;;;;;;;;5123534;27;20207;-71
2022/02/03 08:10:50;;;;;;;6.43;4.73;;;;;;;;;;5133923;27;20227;-71
2022/02/03 08:13:24;;;;;;;7.90;5.30;;;;;;;;;;5139746;27;20207;-70
2022/02/03 08:16:00;;;;;;;8.80;4.80;;;;;;;;;;5138811;27;20202;-71
2022/02/03 08:18:36;;;;;;;4.73;4.20;;;;;;;;;;5135175;27;20209;-71
2022/02/03 08:21:06;;;;;;;8.33;5.10;;;;;;;;;;5119070;28;20214;-71
2022/02/03 08:26:40;;;;;;;8.13;5.60;;;;;;;;;;5133020;27;20224;-71
2022/02/03 08:29:18;;;;;;;10.30;5.53;;;;;;;;;;5139908;27;20208;-71
2022/02/03 08:31:53;;;;;;;11.13;6.00;;;;;;;;;;5139376;27;20208;-71
2022/02/03 08:34:33;;;;;;;11.37;7.00;;;;;;;;;;5139589;27;20210;-71
2022/02/03 08:37:04;;;;;;;13.47;7.67;;;;;;;;;;5138790;27;20583;-72
2022/02/03 08:39:38;;;;;;;18.07;6.63;;;;;;;;;;5125702;27;20223;-71
2022/02/03 08:42:06;;;;;;;15.53;7.27;;;;;;;;;;5118831;28;20206;-71
2022/02/03 08:44:36;;;;;;;11.40;6.67;;;;;;;;;;5118753;28;20205;-71
2022/02/03 08:47:04;;;;;;;15.73;7.87;;;;;;;;;;5119915;27;20234;-70
2022/02/03 08:49:34;;;;;;;19.80;9.63;;;;;;;;;;5139137;27;20685;-71
2022/02/03 08:52:07;;;;;;;22.97;10.73;;;;;;;;;;5138996;27;20279;-71
2022/02/03 08:54:37;;;;;;;19.50;9.40;;;;;;;;;;5139307;27;20208;-71
2022/02/03 08:57:13;;;;;;;18.60;8.73;;;;;;;;;;5130122;27;20220;-70
2022/02/03 09:36:14;;;;;;;11.10;5.20;;;;;;;;;;5118357;27;20201;-71
2022/02/03 09:38:59;;;;;;;9.40;5.37;;;;;;;;;;5121670;28;20203;-70
2022/02/03 09:42:00;;;;;;;8.97;5.13;;;;;;;;;;5138700;27;20204;-71
2022/02/03 09:50:56;;;;;;;8.30;4.70;;;;;;;;;;5125396;28;20209;-71
2022/02/03 09:53:54;;;;;;;6.13;4.77;;;;;;;;;;5115197;28;20197;-70
2022/02/03 09:59:10;;;;;;;10.57;4.90;;;;;;;;;;5119450;28;20210;-71
2022/02/03 10:01:44;;;;;;;8.23;4.70;;;;;;;;;;5117544;28;20196;-71
2022/02/03 10:04:16;;;;;;;6.17;4.60;;;;;;;;;;5117850;28;20205;-71
2022/02/03 10:06:57;;;;;;;6.83;4.67;;;;;;;;;;5117844;28;20236;-71
2022/02/03 10:09:38;;;;;;;7.27;4.87;;;;;;;;;;5117887;28;20196;-71
2022/02/03 10:12:06;;;;;;;6.20;5.20;;;;;;;;;;5127684;27;20201;-71
2022/02/03 10:14:34;;;;;;;7.53;5.37;;;;;;;;;;5121939;28;20200;-70
2022/02/03 10:17:03;;;;;;;8.20;4.97;;;;;;;;;;5137060;27;20222;-71
2022/02/03 10:19:35;;;;;;;6.03;4.97;;;;;;;;;;5129385;27;20574;-71
2022/02/03 10:22:11;;;;;;;7.97;5.27;;;;;;;;;;5121656;27;20205;-71
2022/02/03 10:24:40;;;;;;;6.97;5.00;;;;;;;;;;5121426;28;20240;-71
2022/02/03 10:27:17;;;;;;;7.60;4.47;;;;;;;;;;5137317;27;20224;-71
2022/02/03 10:29:47;;;;;;;10.60;4.27;;;;;;;;;;5142189;27;20211;-70
2022/02/03 10:32:26;;;;;;;4.33;3.60;;;;;;;;;;5122242;27;20208;-70
2022/02/03 10:34:54;;;;;;;5.10;4.33;;;;;;;;;;5121325;28;20205;-71
2022/02/03 10:37:41;;;;;;;6.67;3.73;;;;;;;;;;5139474;27;20216;-71
2022/02/03 10:40:28;;;;;;;5.73;4.73;;;;;;;;;;5122560;27;20667;-71
2022/02/03 10:43:28;;;;;;;5.77;4.23;;;;;;;;;;5121072;28;20201;-70
2022/02/03 10:46:24;;;;;;;6.17;4.00;;;;;;;;;;5126988;27;20558;-71
2022/02/03 10:49:11;;;;;;;5.33;4.03;;;;;;;;;;5141407;27;20574;-71
2022/02/03 10:52:13;;;;;;;6.40;4.70;;;;;;;;;;5128452;27;20286;-71
2022/02/03 10:55:01;;;;;;;6.00;4.50;;;;;;;;;;5120884;28;20215;-71
2022/02/03 11:03:13;;;;;;;7.10;5.27;;;;;;;;;;5131125;27;20211;-71
2022/02/03 11:06:06;;;;;;;7.20;4.97;;;;;;;;;;5110336;28;20208;-71
2022/02/03 11:08:40;;;;;;;8.90;5.60;;;;;;;;;;5126787;27;20193;-71
2022/02/03 11:11:14;;;;;;;8.57;5.77;;;;;;;;;;5140701;27;20210;-70
2022/02/03 11:13:42;;;;;;;12.43;5.60;;;;;;;;;;5133847;27;20672;-71
2022/02/03 11:16:12;;;;;;;6.37;5.53;;;;;;;;;;5120529;28;20315;-71
2022/02/03 11:18:41;;;;;;;8.53;5.70;;;;;;;;;;5122095;27;20211;-71
2022/02/03 11:21:12;;;;;;;10.27;6.07;;;;;;;;;;5120521;28;20200;-71
2022/02/03 11:23:45;;;;;;;8.17;5.37;;;;;;;;;;5119749;27;20215;-70
2022/02/03 11:26:24;;;;;;;8.80;5.80;;;;;;;;;;5119869;28;20229;-70
2022/02/03 11:29:12;;;;;;;9.47;6.13;;;;;;;;;;5124349;27;20196;-70
2022/02/03 11:32:06;;;;;;;9.10;6.00;;;;;;;;;;5140665;27;20211;-70
2022/02/03 11:37:42;;;;;;;7.10;5.30;;;;;;;;;;5109518;28;20242;-71
2022/02/03 11:40:34;;;;;;;8.77;6.13;;;;;;;;;;5125137;27;20235;-71
2022/02/03 11:43:28;;;;;;;9.27;5.13;;;;;;;;;;5122982;27;20205;-71
2022/02/03 11:51:57;;;;;;;9.23;5.93;;;;;;;;;;5122581;27;20196;-71
2022/02/03 12:12:14;;;;;;;7.30;5.33;;;;;;;;;;5108855;28;20690;-70
2022/02/03 12:15:05;;;;;;;10.43;5.53;;;;;;;;;;5109639;28;20230;-70
2022/02/03 12:17:49;;;;;;;8.10;5.20;;;;;;;;;;5119158;27;20213;-70
2022/02/03 12:20:35;;;;;;;8.07;5.20;;;;;;;;;;5116300;28;20223;-71
2022/02/03 12:23:09;;;;;;;6.23;4.97;;;;;;;;;;5119685;27;20683;-71
2022/02/03 12:25:47;;;;;;;6.93;4.80;;;;;;;;;;5107903;28;20240;-71
2022/02/03 12:28:24;;;;;;;8.27;4.70;;;;;;;;;;5121665;27;20223;-71
2022/02/03 12:39:14;;;;;;;6.70;4.77;;;;;;;;;;5128550;27;20197;-71
2022/02/03 12:41:48;;;;;;;8.47;5.73;;;;;;;;;;5118575;28;20656;-70
2022/02/03 12:44:21;;;;;;;10.60;5.80;;;;;;;;;;5119540;27;20200;-71
2022/02/03 12:46:49;;;;;;;7.53;5.30;;;;;;;;;;5118610;28;20232;-71
2022/02/03 12:49:21;;;;;;;10.83;6.30;;;;;;;;;;5127804;27;20200;-71
2022/02/03 12:51:50;;;;;;;10.77;6.33;;;;;;;;;;5135555;27;20214;-71
2022/02/03 12:54:18;;;;;;;10.63;6.03;;;;;;;;;;5136276;27;20228;-70
2022/02/03 12:56:46;;;;;;;10.63;6.83;;;;;;;;;;5122068;27;20221;-70
2022/02/03 12:59:16;;;;;;;11.40;6.53;;;;;;;;;;5118388;28;20207;-71
2022/02/03 13:01:46;;;;;;;10.97;6.70;;;;;;;;;;5127672;27;20210;-71
2022/02/03 13:04:16;;;;;;;10.93;5.60;;;;;;;;;;5121344;27;20240;-70
2022/02/03 13:06:56;;;;;;;5.67;4.47;;;;;;;;;;5118286;28;20228;-71
2022/02/03 13:09:27;;;;;;;6.13;4.47;;;;;;;;;;5118343;28;20196;-71
2022/02/03 13:12:06;;;;;;;9.80;5.03;;;;;;;;;;5118051;28;20209;-70
2022/02/03 13:14:41;;;;;;;12.67;5.70;;;;;;;;;;5137992;27;20206;-70
2022/02/03 13:17:20;;;;;;;8.63;5.37;;;;;;;;;;5138450;27;20224;-70
2022/02/03 13:20:10;;;;;;;10.00;5.30;;;;;;;;;;5121875;27;20232;-70
2022/02/03 13:22:51;;;;;;;6.27;4.67;;;;;;;;;;5121672;28;20233;-70
2022/02/03 13:25:24;;;;;;;7.57;5.47;;;;;;;;;;5138657;27;20259;-70
2022/02/03 13:28:00;;;;;;;6.03;5.43;;;;;;;;;;5134433;27;20217;-71
2022/02/03 13:30:36;;;;;;;8.73;4.90;;;;;;;;;;5138991;27;20208;-71
2022/02/03 13:33:05;;;;;;;6.40;5.10;;;;;;;;;;5132495;27;20203;-71
2022/02/03 13:35:44;;;;;;;6.27;4.83;;;;;;;;;;5118030;28;20209;-70
2022/02/03 13:38:23;;;;;;;7.07;4.47;;;;;;;;;;5120552;28;20207;-71
2022/02/03 13:41:04;;;;;;;9.57;5.47;;;;;;;;;;5117819;28;20207;-70
2022/02/03 13:43:38;;;;;;;8.70;5.80;;;;;;;;;;5117925;28;20201;-71
2022/02/03 13:46:06;;;;;;;9.77;5.53;;;;;;;;;;5119177;28;20252;-70
2022/02/03 13:48:37;;;;;;;8.67;5.07;;;;;;;;;;5129963;27;20679;-71
2022/02/03 13:51:08;;;;;;;8.10;5.20;;;;;;;;;;5142608;27;20204;-71
2022/02/03 13:53:42;;;;;;;6.43;5.10;;;;;;;;;;5142428;27;20196;-71
2022/02/03 14:21:34;;;;;;;7.17;4.10;;;;;;;;;;5122737;27;20203;-71
2022/02/03 14:27:02;;;;;;;7.93;4.20;;;;;;;;;;5123256;27;20220;-71
2022/02/03 14:29:36;;;;;;;6.70;4.30;;;;;;;;;;5121592;28;20230;-71
2022/02/03 14:32:06;;;;;;;4.33;3.70;;;;;;;;;;5121164;28;20204;-70
2022/02/03 14:34:36;;;;;;;4.37;3.63;;;;;;;;;;5121087;27;20682;-71
2022/02/03 14:37:10;;;;;;;5.70;3.70;;;;;;;;;;5121459;27;20715;-71
2022/02/03 14:39:50;;;;;;;8.13;6.20;;;;;;;;;;5121869;27;20200;-71
2022/02/03 14:42:21;;;;;;;8.27;4.93;;;;;;;;;;5109008;28;20681;-71
2022/02/03 14:44:49;;;;;;;7.53;4.40;;;;;;;;;;5121530;27;20209;-71
2022/02/03 14:47:18;;;;;;;5.77;4.27;;;;;;;;;;5121287;27;20250;-71
2022/02/03 14:49:46;;;;;;;4.67;3.93;;;;;;;;;;5121104;27;20220;-71
2022/02/03 14:52:25;;;;;;;9.40;4.70;;;;;;;;;;5141528;27;20200;-71
2022/02/03 15:00:27;;;;;;;5.10;4.20;;;;;;;;;;5126934;27;20223;-71
2022/02/03 15:02:55;;;;;;;6.93;4.23;;;;;;;;;;5141427;27;20243;-71
2022/02/03 15:05:26;;;;;;;8.53;5.00;;;;;;;;;;5140645;27;20200;-71
2022/02/03 15:07:58;;;;;;;8.70;4.60;;;;;;;;;;5141077;27;20568;-71
2022/02/03 15:10:42;;;;;;;6.80;4.90;;;;;;;;;;5134761;27;20208;-71
2022/02/03 15:13:16;;;;;;;10.70;5.73;;;;;;;;;;5120642;28;20215;-71
2022/02/03 15:15:44;;;;;;;6.53;5.33;;;;;;;;;;5128571;27;20198;-71
2022/02/03 15:18:15;;;;;;;6.80;4.87;;;;;;;;;;5139581;27;20211;-71
2022/02/03 15:20:43;;;;;;;8.53;5.63;;;;;;;;;;5128372;27;20239;-71
2022/02/03 15:23:11;;;;;;;8.07;5.37;;;;;;;;;;5141108;27;20208;-71
2022/02/03 15:25:39;;;;;;;7.90;5.00;;;;;;;;;;5139579;27;20594;-71
2022/02/03 15:28:07;;;;;;;6.47;4.93;;;;;;;;;;5140857;27;20204;-71
2022/02/03 15:30:37;;;;;;;4.63;4.17;;;;;;;;;;5133584;27;20252;-71
2022/02/03 15:33:09;;;;;;;7.70;4.53;;;;;;;;;;5120043;28;20615;-71
2022/02/03 15:35:41;;;;;;;6.07;4.20;;;;;;;;;;5123312;27;20204;-71
2022/02/03 15:38:13;;;;;;;9.13;4.33;;;;;;;;;;5138921;27;20222;-71
2022/02/03 15:40:41;;;;;;;5.60;3.83;;;;;;;;;;5106325;27;20207;-71
2022/02/03 15:43:22;;;;;;;3.90;3.40;;;;;;;;;;5120335;28;20678;-71
2022/02/03 15:45:54;;;;;;;4.53;3.67;;;;;;;;;;5124959;27;20196;-71
2022/02/03 15:48:31;;;;;;;4.97;3.90;;;;;;;;;;5140442;27;20204;-71
2022/02/03 15:51:13;;;;;;;4.20;3.37;;;;;;;;;;5139799;27;20207;-71
2022/02/03 15:56:54;;;;;;;4.93;3.90;;;;;;;;;;5125625;27;20217;-71
2022/02/03 16:02:45;;;;;;;5.23;3.80;;;;;;;;;;5135842;27;20663;-72
2022/02/03 16:19:09;;;;;;;5.37;4.03;;;;;;;;;;5115164;28;20196;-71
2022/02/03 16:21:42;;;;;;;6.97;4.30;;;;;;;;;;5119442;27;20690;-71
2022/02/03 16:31:59;;;;;;;7.70;4.23;;;;;;;;;;5129063;27;20691;-71
2022/02/03 16:41:38;;;;;;;6.27;4.63;;;;;;;;;;5111143;27;20706;-71
2022/02/03 16:55:11;;;;;;;7.30;4.87;;;;;;;;;;5132776;27;20208;-71
2022/02/03 16:57:39;;;;;;;8.67;5.47;;;;;;;;;;5120008;27;20222;-71
2022/02/03 17:00:11;;;;;;;5.10;4.20;;;;;;;;;;5118612;28;20200;-71
2022/02/03 17:02:57;;;;;;;5.37;4.60;;;;;;;;;;5107928;28;20238;-71
2022/02/03 17:05:25;;;;;;;7.97;5.07;;;;;;;;;;5119517;27;20587;-71
2022/02/03 17:07:54;;;;;;;5.57;4.50;;;;;;;;;;5137302;27;20227;-71
2022/02/03 17:10:22;;;;;;;8.40;5.30;;;;;;;;;;5104848;28;20702;-71
2022/02/03 17:12:50;;;;;;;6.47;5.07;;;;;;;;;;5118048;28;20204;-71
2022/02/03 17:15:20;;;;;;;7.87;5.33;;;;;;;;;;5118401;28;20671;-72
2022/02/03 17:17:50;;;;;;;7.70;5.57;;;;;;;;;;5118277;28;20220;-70
2022/02/03 17:20:19;;;;;;;6.33;5.20;;;;;;;;;;5136599;27;20567;-71
2022/02/03 17:22:50;;;;;;;7.50;5.47;;;;;;;;;;5139348;27;20204;-71
2022/02/03 17:25:26;;;;;;;11.43;5.77;;;;;;;;;;5138201;27;20259;-71
2022/02/03 17:27:59;;;;;;;7.97;5.60;;;;;;;;;;5138723;27;20227;-71
2022/02/03 17:30:32;;;;;;;6.73;5.57;;;;;;;;;;5118241;27;20228;-71
2022/02/03 18:03:55;;;;;;;8.73;6.30;;;;;;;;;;5138501;27;20205;-71
2022/02/03 18:09:24;;;;;;;8.73;6.33;;;;;;;;;;5124333;28;20192;-71
2022/02/03 18:17:07;;;;;;;7.50;5.87;;;;;;;;;;5137522;27;20210;-71
2022/02/03 18:18:26;;;;;;;6.93;5.33;;;;;;;;;;5137276;27;20593;-71
2022/02/03 18:32:31;;;;;;;6.43;5.03;;;;;;;;;;5117512;28;20577;-71
2022/02/03 18:45:47;;;;;;;8.70;5.13;;;;;;;;;;5121362;27;20213;-71
2022/02/03 18:51:41;;;;;;;5.10;4.53;;;;;;;;;;5140293;27;20228;-72
2022/02/03 18:57:01;;;;;;;5.47;4.53;;;;;;;;;;5117806;28;20243;-71
2022/02/03 19:20:53;;;;;;;7.97;5.67;;;;;;;;;;5132947;27;20216;-71
2022/02/03 19:27:47;;;;;;;6.97;5.47;;;;;;;;;;5113488;28;20312;-71
2022/02/03 20:01:19;;;;;;;11.60;7.77;;;;;;;;;;5140031;27;20567;-71
2022/02/03 20:04:15;;;;;;;12.33;7.83;;;;;;;;;;5121096;27;20205;-71
2022/02/03 20:07:00;;;;;;;10.93;7.07;;;;;;;;;;5117924;28;20750;-71
2022/02/03 20:09:43;;;;;;;8.40;6.20;;;;;;;;;;5109626;28;20655;-71
2022/02/03 20:12:13;;;;;;;12.43;7.63;;;;;;;;;;5119291;27;20197;-71
2022/02/03 20:14:41;;;;;;;11.97;7.03;;;;;;;;;;5120251;27;20218;-71
2022/02/03 20:17:09;;;;;;;10.13;7.60;;;;;;;;;;5119388;28;20232;-71
2022/02/03 20:19:37;;;;;;;10.63;7.63;;;;;;;;;;5122381;27;20203;-71
2022/02/03 20:22:05;;;;;;;8.07;6.90;;;;;;;;;;5139968;27;20215;-71
2022/02/03 20:24:35;;;;;;;10.23;7.37;;;;;;;;;;5139330;27;20228;-71
2022/02/03 20:27:03;;;;;;;10.93;7.50;;;;;;;;;;5139302;27;20279;-71
2022/02/03 20:29:32;;;;;;;10.80;7.50;;;;;;;;;;5131607;27;20667;-71
2022/02/03 20:32:01;;;;;;;9.63;6.80;;;;;;;;;;5119151;28;20228;-71
2022/02/03 20:34:29;;;;;;;10.90;6.93;;;;;;;;;;5126192;27;20203;-71
2022/02/03 20:36:57;;;;;;;8.10;6.73;;;;;;;;;;5139385;27;20230;-71
2022/02/03 20:39:24;;;;;;;8.80;7.00;;;;;;;;;;5127745;27;20193;-71
2022/02/03 20:41:52;;;;;;;9.10;6.47;;;;;;;;;;5118483;28;20205;-71
2022/02/03 20:44:20;;;;;;;10.17;6.80;;;;;;;;;;5122179;27;20281;-71
2022/02/03 20:46:50;;;;;;;9.17;6.80;;;;;;;;;;5139282;27;20309;-71
2022/02/03 20:49:18;;;;;;;8.60;6.40;;;;;;;;;;5137462;27;20200;-71
2022/02/03 20:51:46;;;;;;;8.60;6.80;;;;;;;;;;5139121;27;20234;-71
2022/02/03 20:54:14;;;;;;;7.03;6.13;;;;;;;;;;5138427;27;20204;-71
2022/02/03 20:56:43;;;;;;;8.53;6.30;;;;;;;;;;5122517;27;20586;-71
2022/02/03 20:59:13;;;;;;;10.43;6.97;;;;;;;;;;5120025;27;20232;-71
2022/02/03 21:01:43;;;;;;;10.33;7.00;;;;;;;;;;5139431;27;20211;-71
2022/02/03 21:04:27;;;;;;;10.13;5.87;;;;;;;;;;5138443;27;20685;-71
2022/02/03 21:06:55;;;;;;;8.97;6.83;;;;;;;;;;5133818;27;20239;-71
2022/02/03 21:09:23;;;;;;;11.30;7.10;;;;;;;;;;5138962;27;20210;-71
2022/02/03 21:11:51;;;;;;;18.13;7.57;;;;;;;;;;5120848;27;20219;-71
2022/02/03 21:14:19;;;;;;;10.33;7.47;;;;;;;;;;5119278;27;20196;-71
2022/02/03 21:16:51;;;;;;;13.20;7.10;;;;;;;;;;5123751;28;20224;-71
2022/02/03 21:19:21;;;;;;;11.50;7.77;;;;;;;;;;5128305;27;20201;-71
2022/02/03 21:21:51;;;;;;;10.97;6.57;;;;;;;;;;5118351;28;20561;-71
2022/02/03 21:24:19;;;;;;;9.40;7.17;;;;;;;;;;5127689;27;20721;-71
2022/02/03 21:26:47;;;;;;;9.13;6.43;;;;;;;;;;5138549;27;20229;-71
2022/02/03 21:29:15;;;;;;;8.43;6.30;;;;;;;;;;5138187;27;20199;-71
2022/02/03 21:31:43;;;;;;;11.23;6.77;;;;;;;;;;5121830;27;20710;-71
2022/02/03 21:34:15;;;;;;;12.10;5.93;;;;;;;;;;5118204;28;20671;-71
2022/02/03 21:36:45;;;;;;;10.53;6.73;;;;;;;;;;5118023;28;20225;-71
2022/02/03 21:39:13;;;;;;;8.47;6.53;;;;;;;;;;5128517;28;20563;-71
2022/02/03 21:41:42;;;;;;;9.10;6.63;;;;;;;;;;5121924;27;20213;-71
2022/02/03 21:44:12;;;;;;;11.17;6.20;;;;;;;;;;5118403;28;20201;-71
2022/02/03 21:46:40;;;;;;;9.30;6.00;;;;;;;;;;5126073;28;20228;-71
2022/02/03 21:49:08;;;;;;;8.13;6.13;;;;;;;;;;5138646;27;20204;-71
2022/02/03 21:51:44;;;;;;;10.03;5.60;;;;;;;;;;5128620;27;20225;-71
2022/02/03 21:54:13;;;;;;;8.33;5.27;;;;;;;;;;5117925;28;20211;-71
2022/02/03 21:56:44;;;;;;;7.90;6.20;;;;;;;;;;5127250;28;20226;-72
2022/02/03 21:59:12;;;;;;;8.20;6.33;;;;;;;;;;5138915;27;20204;-71
2022/02/03 22:01:41;;;;;;;9.73;6.23;;;;;;;;;;5128171;27;20664;-71
2022/02/03 22:04:09;;;;;;;7.47;5.87;;;;;;;;;;5117774;28;20686;-71
2022/02/03 22:06:37;;;;;;;6.43;5.53;;;;;;;;;;5118661;27;20705;-71
2022/02/03 22:09:05;;;;;;;5.40;4.17;;;;;;;;;;5122101;28;20663;-71
2022/02/03 22:11:34;;;;;;;4.23;3.73;;;;;;;;;;5130377;27;20578;-71
2022/02/03 22:14:02;;;;;;;6.00;4.97;;;;;;;;;;5122599;27;20291;-71
2022/02/03 22:16:32;;;;;;;5.83;4.37;;;;;;;;;;5121954;28;20223;-72
2022/02/03 22:19:01;;;;;;;5.43;3.83;;;;;;;;;;5115808;28;20272;-71
2022/02/03 22:21:37;;;;;;;4.77;3.77;;;;;;;;;;5121373;27;20533;-71
2022/02/03 22:24:14;;;;;;;5.83;4.67;;;;;;;;;;5121262;28;20220;-71
2022/02/03 22:46:35;;;;;;;4.73;3.60;;;;;;;;;;5105304;27;20216;-71
2022/02/03 22:49:04;;;;;;;4.57;3.73;;;;;;;;;;5121131;28;20209;-72
2022/02/03 22:51:32;;;;;;;4.90;4.07;;;;;;;;;;5129417;27;20228;-71
2022/02/03 22:54:00;;;;;;;5.33;4.20;;;;;;;;;;5141707;27;20659;-71
2022/02/03 22:56:28;;;;;;;6.33;4.53;;;;;;;;;;5134124;27;20312;-71
2022/02/03 23:01:48;;;;;;;5.63;4.20;;;;;;;;;;5130334;27;20199;-71
2022/02/03 23:04:18;;;;;;;4.40;4.00;;;;;;;;;;5121203;28;20212;-71
2022/02/03 23:06:52;;;;;;;4.57;3.93;;;;;;;;;;5127961;27;20215;-71
2022/02/03 23:09:35;;;;;;;7.07;4.30;;;;;;;;;;5141507;27;20635;-71
2022/02/03 23:12:11;;;;;;;4.20;3.80;;;;;;;;;;5140410;27;20687;-71
2022/02/03 23:17:38;;;;;;;4.87;4.20;;;;;;;;;;5116664;27;20695;-71
2022/02/03 23:20:12;;;;;;;4.17;3.73;;;;;;;;;;5123722;27;20215;-71
2022/02/03 23:22:41;;;;;;;6.63;4.40;;;;;;;;;;5137593;27;20196;-71
2022/02/03 23:25:13;;;;;;;5.60;4.10;;;;;;;;;;5140862;27;20240;-71
2022/02/03 23:30:31;;;;;;;5.27;4.40;;;;;;;;;;5141072;27;20204;-71
2022/02/03 23:32:59;;;;;;;4.53;4.07;;;;;;;;;;5140229;27;20247;-71
2022/02/03 23:35:29;;;;;;;7.27;4.53;;;;;;;;;;5141017;27;20204;-71
2022/02/03 23:38:06;;;;;;;5.97;4.70;;;;;;;;;;5120632;27;20205;-71
2022/02/03 23:41:19;;;;;;;6.17;4.93;;;;;;;;;;5134907;27;20211;-71
2022/02/03 23:44:06;;;;;;;3.80;3.50;;;;;;;;;;5119920;28;20657;-71
